Hovedside
METAR-TAF:

METAR-TAF

Lufthavner :

Jämsä, Finland

Halli lufthavn

breddegrad: 61-51N, lengdegrad: 024-48E, høyde over havet: 143 m

Gjeldene værobservasjon

Denne rapporten ble laget for 26 minutter siden, klokken 07:20 UTC
Vind 2 kt fra skiftende retning
Temperatur -1°C
Luftfuktighet 93%
Trykk 1032 hPa
Sikt 10 km eller mer
Få skyer i en høyde av 1000 ft
Brutte skyer i en høyde av 2000 ft

METAR: EFHA 240720Z VRB02KT 9999 FEW010 BKN020 M01/M02 Q1032

Tid: 10:46 (07:46 UTC)

Varsel

Denne rapporten ble laget for 2 timer og 15 minutter siden, klokken 05:31 UTC
Varsel gyldig fra 24. klokken 06 UTC til 24. klokken 14 UTC
Vind 2 kt fra Øst-nordøst
Sikt 10 km eller mer
Brutte skyer i en høyde av 2000 ft
Sannsynlighet 40%
fra 24. klokken 06 UTC til 24. klokken 12 UTC
Brutte skyer i en høyde av 1300 ft

TAF: EFHA 240531Z 2406/2414 07002KT 9999 BKN020 PROB40 2406/2412 BKN013

Værobservasjoner og værvarsel for over 4000 flyplasser (METAR- og TAF-rapporter).

Tilgjengelige stasjoner er representert av de røde og gule prikkene på kartet.

Hold musepekeren over prikken for å se navnet på stasjonen.

Klikk så for å se værobservasjoner og -varsler.

For å forandre kartet kan du klikke på den grønne knappen med svart kryss for å zoome inn, på den grønne knappen med strek for å zoome ut, eller på de grønne pilene for å se tilstøtende kart.


METAR-TAF: